地図

経路データ

SID SEASON NUMBER BASIN SUBBASIN NAME ISO_TIME NATURE LAT LON WMO_WIND WMO_PRES WMO_AGENCY TRACK_TYPE DIST2LAND LANDFALL IFLAG USA_AGENCY USA_ATCF_ID USA_LAT USA_LON USA_RECORD USA_STATUS USA_WIND USA_PRES USA_SSHS USA_R34_NE USA_R34_SE USA_R34_SW USA_R34_NW USA_R50_NE USA_R50_SE USA_R50_SW USA_R50_NW USA_R64_NE USA_R64_SE USA_R64_SW USA_R64_NW USA_POCI USA_ROCI USA_RMW USA_EYE TOKYO_LAT TOKYO_LON TOKYO_GRADE TOKYO_WIND TOKYO_PRES TOKYO_R50_DIR TOKYO_R50_LONG TOKYO_R50_SHORT TOKYO_R30_DIR TOKYO_R30_LONG TOKYO_R30_SHORT TOKYO_LAND CMA_LAT CMA_LON CMA_CAT CMA_WIND CMA_PRES HKO_LAT HKO_LON HKO_CAT HKO_WIND HKO_PRES NEWDELHI_LAT NEWDELHI_LON NEWDELHI_GRADE NEWDELHI_WIND NEWDELHI_PRES NEWDELHI_CI NEWDELHI_DP NEWDELHI_POCI REUNION_LAT REUNION_LON REUNION_TYPE REUNION_WIND REUNION_PRES REUNION_TNUM REUNION_CI REUNION_RMW REUNION_R34_NE REUNION_R34_SE REUNION_R34_SW REUNION_R34_NW REUNION_R50_NE REUNION_R50_SE REUNION_R50_SW REUNION_R50_NW REUNION_R64_NE REUNION_R64_SE REUNION_R64_SW REUNION_R64_NW BOM_LAT BOM_LON BOM_TYPE BOM_WIND BOM_PRES BOM_TNUM BOM_CI BOM_RMW BOM_R34_NE BOM_R34_SE BOM_R34_SW BOM_R34_NW BOM_R50_NE BOM_R50_SE BOM_R50_SW BOM_R50_NW BOM_R64_NE BOM_R64_SE BOM_R64_SW BOM_R64_NW BOM_ROCI BOM_POCI BOM_EYE BOM_POS_METHOD BOM_PRES_METHOD NADI_LAT NADI_LON NADI_CAT NADI_WIND NADI_PRES WELLINGTON_LAT WELLINGTON_LON WELLINGTON_WIND WELLINGTON_PRES DS824_LAT DS824_LON DS824_STAGE DS824_WIND DS824_PRES TD9636_LAT TD9636_LON TD9636_STAGE TD9636_WIND TD9636_PRES TD9635_LAT TD9635_LON TD9635_WIND TD9635_PRES TD9635_ROCI NEUMANN_LAT NEUMANN_LON NEUMANN_CLASS NEUMANN_WIND NEUMANN_PRES MLC_LAT MLC_LON MLC_CLASS MLC_WIND MLC_PRES USA_GUST BOM_GUST BOM_GUST_PER REUNION_GUST REUNION_GUST_PER USA_SEAHGT USA_SEARAD_NE USA_SEARAD_SE USA_SEARAD_SW USA_SEARAD_NW STORM_SPEED STORM_DIR
1882001S17079 1882 2 SI MM NOT_NAMED 1882-01-01 06:00:00 NR -16.5000 79.0000 spur-split 2275 2210 __________O___ -1 -16.5000 79.0000 7 14 224
1882001S17079 1882 2 SI MM NOT_NAMED 1882-01-01 09:00:00 NR -16.9931 78.4970 spur-split 2210 2146 __________P___ -1 -16.9931 78.4970 7 14 224
1882001S17079 1882 2 SI MM NOT_NAMED 1882-01-01 12:00:00 NR -17.4885 77.9942 spur-split 2146 2084 __________P___ -1 -17.4885 77.9942 7 14 224
1882001S17079 1882 2 SI MM NOT_NAMED 1882-01-01 15:00:00 NR -17.9896 77.4943 spur-split 2084 2022 __________P___ -1 -17.9896 77.4943 7 14 223
1882001S17079 1882 2 SI MM NOT_NAMED 1882-01-01 18:00:00 NR -18.5000 77.0000 spur-split 2022 1962 __________O___ -1 -18.5000 77.0000 7 14 222
1882001S17079 1882 2 SI MM NOT_NAMED 1882-01-01 21:00:00 NR -19.0217 76.5150 spur-split 1962 1914 __________P___ -1 -19.0217 76.5150 7 14 221
1882001S17079 1882 2 SI MM NOT_NAMED 1882-01-02 00:00:00 NR -19.5498 76.0471 spur-split 1903 1857 __________P___ -1 -19.5498 76.0471 7 14 219
1882001S17079 1882 2 SI MM NOT_NAMED 1882-01-02 03:00:00 NR -20.0780 75.6057 spur-split 1856 1812 __________P___ -1 -20.0780 75.6057 7 13 217
1882001S17079 1882 2 SI MM NOT_NAMED 1882-01-02 06:00:00 NR -20.6000 75.2000 spur-split 1812 1769 __________O___ -1 -20.6000 75.2000 7 13 216
1882001S17079 1882 2 SI MM NOT_NAMED 1882-01-02 09:00:00 NR -21.0866 74.8138 spur-split 1769 1738 __________P___ -1 -21.0866 74.8138 7 12 215
1882001S17079 1882 2 SI MM NOT_NAMED 1882-01-02 12:00:00 NR -21.5697 74.4664 spur-split 1739 1709 __________P___ -1 -21.5697 74.4664 7 12 212
1882001S17079 1882 2 SI MM NOT_NAMED 1882-01-02 15:00:00 NR -22.0680 74.1609 spur-split 1710 1683 __________P___ -1 -22.0680 74.1609 7 12 207
1882001S17079 1882 2 SI MM NOT_NAMED 1882-01-02 18:00:00 NR -22.6000 73.9000 spur-split 1684 1669 __________O___ -1 -22.6000 73.9000 7 12 202
1882001S17079 1882 2 SI MM NOT_NAMED 1882-01-02 21:00:00 NR -23.1929 73.6613 spur-split 1672 1657 __________P___ -1 -23.1929 73.6613 7 13 198
1882001S17079 1882 2 SI MM NOT_NAMED 1882-01-03 00:00:00 NR -23.8197 73.4673 spur-split 1663 1654 __________P___ -1 -23.8197 73.4673 7 13 194
1882001S17079 1882 2 SI MM NOT_NAMED 1882-01-03 03:00:00 NR -24.4618 73.3146 spur-split 1659 1657 __________P___ -1 -24.4618 73.3146 7 13 191
1882001S17079 1882 2 SI MM NOT_NAMED 1882-01-03 06:00:00 NR -25.1000 73.2000 spur-split 1666 1666 __________O___ -1 -25.1000 73.2000 7 13 189
1882001S17079 1882 2 SI MM NOT_NAMED 1882-01-03 09:00:00 NR -25.7273 73.1052 spur-split 1676 1676 __________P___ -1 -25.7273 73.1052 7 13 186
1882001S17079 1882 2 SI MM NOT_NAMED 1882-01-03 12:00:00 NR -26.3448 73.0467 spur-split 1688 1688 __________P___ -1 -26.3448 73.0467 7 12 184
1882001S17079 1882 2 SI MM NOT_NAMED 1882-01-03 15:00:00 NR -26.9399 73.0148 spur-split 1711 1711 __________P___ -1 -26.9399 73.0148 7 12 182
1882001S17079 1882 2 SI MM NOT_NAMED 1882-01-03 18:00:00 NR -27.5000 73.0000 spur-split 1737 1737 __________O___ -1 -27.5000 73.0000 7 11 181
1882001S17079 1882 2 SI MM NOT_NAMED 1882-01-03 21:00:00 NR -28.0166 72.9937 spur-split 1760 1760 __________P___ -1 -28.0166 72.9937 7 10 181
1882001S17079 1882 2 SI MM NOT_NAMED 1882-01-04 00:00:00 NR -28.4975 72.9927 spur-split 1784 1784 __________P___ -1 -28.4975 72.9927 7 9 0
1882001S17079 1882 2 SI MM NOT_NAMED 1882-01-04 03:00:00 NR -28.9547 72.9954 spur-split 1810 1810 __________P___ -1 -28.9547 72.9954 7 9 0
1882001S17079 1882 2 SI MM NOT_NAMED 1882-01-04 06:00:00 NR -29.4000 73.0000 spur-split 1831 __________O___ -1 -29.4000 73.0000 7 9 177

IBTrACS Databaseについて

本データベースは、米国NOAAが公開する1842年以降の世界の熱帯低気圧のベストトラックデータアーカイブInternational Best Track Archive for Climate Stewardship (IBTrACS)を、ウェブで閲覧しやすい形式に変換したものです。

最終更新日:2021-10-21